createdAt,value
2018-05-31T05:02:57.860Z,21.37
2018-05-31T05:08:01.904Z,21.59
2018-05-31T05:13:05.201Z,21.71
2018-05-31T05:18:23.186Z,21.92
2018-05-31T05:23:26.494Z,21.96
2018-05-31T05:28:35.547Z,21.97
2018-05-31T05:33:38.836Z,22.17
2018-05-31T05:38:42.346Z,22.20
2018-05-31T05:43:45.635Z,22.12
2018-05-31T05:48:49.696Z,22.04
2018-05-31T05:53:52.988Z,22.08
2018-05-31T05:58:57.039Z,21.92
2018-05-31T06:04:00.477Z,22.17
2018-05-31T06:09:04.072Z,22.13
2018-05-31T06:14:08.461Z,22.19
2018-05-31T06:19:12.539Z,22.17
2018-05-31T06:24:16.990Z,22.28
2018-05-31T06:29:20.301Z,22.31
2018-05-31T06:34:23.586Z,22.64
2018-05-31T06:39:27.650Z,22.91
2018-05-31T06:44:30.940Z,22.72
2018-05-31T06:49:47.579Z,22.56
2018-05-31T06:54:50.868Z,22.53
2018-05-31T06:59:54.166Z,22.83
2018-05-31T07:04:58.215Z,22.93
2018-05-31T07:10:01.498Z,23.01
2018-05-31T07:15:05.548Z,23.04
2018-05-31T07:20:17.549Z,23.17
2018-05-31T07:25:21.681Z,22.80
2018-05-31T07:30:25.736Z,22.86
2018-05-31T07:35:29.012Z,23.40
2018-05-31T07:40:34.124Z,23.26
2018-05-31T07:45:37.411Z,23.47
2018-05-31T07:50:40.728Z,23.26
2018-05-31T07:55:44.024Z,23.30
2018-05-31T08:00:48.091Z,23.81
2018-05-31T08:05:51.722Z,23.59
2018-05-31T08:10:54.992Z,23.79
2018-05-31T08:15:58.297Z,23.73
2018-05-31T08:21:01.590Z,23.95
2018-05-31T08:26:05.914Z,24.09
2018-05-31T08:31:09.211Z,23.97
2018-05-31T08:36:16.280Z,23.77
2018-05-31T08:41:21.087Z,24.13
2018-05-31T08:46:25.150Z,24.41
2018-05-31T08:51:28.427Z,24.65
2018-05-31T08:56:32.484Z,24.21
2018-05-31T09:01:35.763Z,24.63
2018-05-31T09:06:39.060Z,24.15
2018-05-31T09:11:42.376Z,24.69
2018-05-31T09:16:45.777Z,24.48
2018-05-31T09:21:51.815Z,24.79
2018-05-31T09:26:55.104Z,24.62
2018-05-31T09:32:00.599Z,24.40
2018-05-31T09:37:04.015Z,24.61
2018-05-31T09:42:07.292Z,24.80
2018-05-31T09:47:10.587Z,24.90
2018-05-31T09:52:14.663Z,25.11
2018-05-31T09:57:17.964Z,25.02
2018-05-31T10:02:21.277Z,25.26
2018-05-31T10:07:26.108Z,25.40
2018-05-31T10:12:29.419Z,25.33
2018-05-31T10:17:33.009Z,25.54
2018-05-31T10:22:36.549Z,25.39
2018-05-31T10:27:40.615Z,25.50
2018-05-31T10:32:44.016Z,25.89
2018-05-31T10:37:47.320Z,25.76
2018-05-31T10:42:52.974Z,25.54
2018-05-31T10:47:57.038Z,25.77
2018-05-31T10:53:00.323Z,25.96
2018-05-31T10:58:03.607Z,26.29
2018-05-31T11:03:06.888Z,26.54
2018-05-31T11:08:10.347Z,26.60
2018-05-31T11:13:13.648Z,26.47
2018-05-31T11:18:16.924Z,25.99
2018-05-31T11:23:20.219Z,26.23
2018-05-31T11:28:23.529Z,26.33
2018-05-31T11:33:26.922Z,26.81
2018-05-31T11:38:30.980Z,26.95
2018-05-31T11:43:34.274Z,27.46
2018-05-31T11:48:37.552Z,27.79
2018-05-31T11:53:40.850Z,27.89
2018-05-31T11:58:44.129Z,28.04
2018-05-31T12:03:47.458Z,28.04
2018-05-31T12:08:50.728Z,27.95
2018-05-31T12:13:54.008Z,28.15
2018-05-31T12:18:57.304Z,28.34
2018-05-31T12:24:00.691Z,28.14
2018-05-31T12:29:04.099Z,28.47
2018-05-31T12:34:07.572Z,28.85
2018-05-31T12:39:11.742Z,29.32
2018-05-31T12:44:15.026Z,29.21
2018-05-31T12:49:18.324Z,29.28
2018-05-31T12:54:22.370Z,29.11
2018-05-31T12:59:25.719Z,28.98
2018-05-31T13:04:28.986Z,29.14
2018-05-31T13:09:32.279Z,29.87
2018-05-31T13:14:35.552Z,30.64
2018-05-31T13:19:38.844Z,29.56
2018-05-31T13:24:42.159Z,29.94
2018-05-31T13:29:46.180Z,31.16
2018-05-31T13:34:49.478Z,30.76
2018-05-31T13:39:52.768Z,31.33
2018-05-31T13:44:56.832Z,31.51
2018-05-31T13:50:00.330Z,31.17
2018-05-31T13:55:04.387Z,30.11
2018-05-31T14:00:07.696Z,30.34
2018-05-31T14:05:10.984Z,31.99
2018-05-31T14:10:14.263Z,32.54
2018-05-31T14:15:17.588Z,32.22
2018-05-31T14:20:20.860Z,32.70
2018-05-31T14:25:24.141Z,31.05
2018-05-31T14:30:27.427Z,32.19
2018-05-31T14:35:30.716Z,33.16
2018-05-31T14:40:34.009Z,32.36
2018-05-31T14:45:37.283Z,32.20
2018-05-31T14:50:40.575Z,31.87
2018-05-31T14:55:44.624Z,31.55
2018-05-31T15:00:47.917Z,31.13
2018-05-31T15:05:51.199Z,31.09
2018-05-31T15:10:54.488Z,31.02
2018-05-31T15:15:57.960Z,31.68
2018-05-31T15:21:02.141Z,31.87
2018-05-31T15:26:05.556Z,31.42
2018-05-31T15:31:08.950Z,30.29
2018-05-31T15:36:12.343Z,29.58
2018-05-31T15:41:15.785Z,29.30
2018-05-31T15:46:19.092Z,29.26
2018-05-31T15:51:22.491Z,29.18
2018-05-31T15:56:25.996Z,29.13
2018-05-31T16:01:29.273Z,28.96
2018-05-31T16:06:32.551Z,29.31
2018-05-31T16:11:35.863Z,29.47
2018-05-31T16:16:39.323Z,29.40
2018-05-31T16:21:42.617Z,29.26
2018-05-31T16:26:45.913Z,28.86
2018-05-31T16:31:49.191Z,28.42
2018-05-31T16:36:52.483Z,28.34
2018-05-31T16:41:55.880Z,28.16
2018-05-31T16:46:59.363Z,28.16
2018-05-31T16:52:02.655Z,27.75
2018-05-31T16:57:05.948Z,27.65
2018-05-31T17:02:09.232Z,26.72
2018-05-31T17:07:12.519Z,25.92
2018-05-31T17:12:15.816Z,25.45
2018-05-31T17:17:19.100Z,24.60
2018-05-31T17:22:22.384Z,20.91
2018-05-31T17:27:25.679Z,20.86
2018-05-31T17:32:28.975Z,20.76
2018-05-31T17:37:32.253Z,21.11
2018-05-31T17:42:35.537Z,22.23
2018-05-31T17:47:39.600Z,23.05
2018-05-31T17:52:42.888Z,23.52
2018-05-31T17:57:46.178Z,23.72
2018-05-31T18:02:49.451Z,23.63
2018-05-31T18:07:52.737Z,23.41
2018-05-31T18:12:56.044Z,23.20
2018-05-31T18:17:59.322Z,23.12
2018-05-31T18:23:02.847Z,23.15
2018-05-31T18:28:06.912Z,23.30
2018-05-31T18:33:10.207Z,23.11
2018-05-31T18:38:13.503Z,23.30
2018-05-31T18:43:17.584Z,22.93
2018-05-31T18:48:21.052Z,22.34
2018-05-31T18:58:27.688Z,21.38
2018-05-31T19:03:30.997Z,21.29
2018-05-31T19:08:34.292Z,21.30
2018-05-31T19:13:42.996Z,20.99
2018-05-31T19:18:51.747Z,20.77
2018-05-31T19:23:55.060Z,20.50
2018-05-31T19:28:58.341Z,20.41
2018-05-31T19:34:01.831Z,20.35
2018-05-31T19:39:06.592Z,20.41
2018-05-31T19:44:15.500Z,20.50
2018-05-31T19:49:19.604Z,20.77
2018-05-31T19:54:22.834Z,20.82
2018-05-31T19:59:32.312Z,21.10
2018-05-31T20:04:36.351Z,21.38
2018-05-31T20:09:39.839Z,21.48
2018-05-31T20:14:43.904Z,21.42
2018-05-31T20:19:47.191Z,21.41
2018-05-31T20:24:51.263Z,21.44
2018-05-31T20:29:54.547Z,21.52
2018-05-31T20:34:57.827Z,21.57
2018-05-31T20:40:01.111Z,21.59
2018-05-31T20:45:04.399Z,21.28
2018-05-31T20:50:07.693Z,21.24
2018-05-31T20:55:10.999Z,21.03
2018-05-31T21:00:15.047Z,20.29
2018-05-31T21:05:18.327Z,20.76
2018-05-31T21:10:22.381Z,20.75
2018-05-31T21:15:25.685Z,20.85
2018-05-31T21:20:28.963Z,20.95
2018-05-31T21:25:32.252Z,20.99
2018-05-31T21:30:35.545Z,20.80
2018-05-31T21:35:38.854Z,20.83
2018-05-31T21:40:42.884Z,20.85
2018-05-31T21:45:46.170Z,20.92
2018-05-31T21:50:49.452Z,20.97
2018-05-31T21:55:52.730Z,21.07
2018-05-31T22:00:56.020Z,21.05
2018-05-31T22:05:59.310Z,20.98
2018-05-31T22:11:03.371Z,20.97
2018-05-31T22:16:06.680Z,20.98
2018-05-31T22:21:09.996Z,21.10
2018-05-31T22:26:13.473Z,21.16
